Terminal Aerodrome Forecast
Issued by NWS Portland, OR

Home | Current Version | Previous Version | Text Only | Print | Product List | Glossary On
Versions: 1 2 3 4 5 6 7 8 9 10 11 12 13 14 15
000
FTUS46 KPQR 221120
TAFEUG
TAF
KEUG 221120Z 2212/2312 01012KT P6SM SKC
     FM221600 36018G28KT P6SM SKC
     FM222200 01025G35KT P6SM SKC
     FM230400 01010G20KT P6SM SKC
     FM230800 02005KT P6SM SKC=

USA.gov is the U.S. government's official web portal to all federal, state and local government web resources and services.